createdAt,value
2018-07-26T00:01:37.591Z,7.22
2018-07-26T00:04:08.132Z,7.58
2018-07-26T00:06:37.230Z,6.67
2018-07-26T00:09:09.549Z,8.88
2018-07-26T00:11:38.721Z,6.10
2018-07-26T00:14:08.480Z,10.85
2018-07-26T00:16:37.748Z,7.30
2018-07-26T00:19:07.653Z,6.75
2018-07-26T00:21:36.739Z,7.12
2018-07-26T00:24:09.811Z,8.13
2018-07-26T00:26:38.900Z,7.25
2018-07-26T00:29:08.271Z,7.12
2018-07-26T00:31:37.636Z,6.67
2018-07-26T00:34:07.177Z,12.45
2018-07-26T00:36:36.251Z,6.10
2018-07-26T00:39:10.849Z,6.87
2018-07-26T00:41:40.184Z,7.78
2018-07-26T00:44:09.679Z,6.35
2018-07-26T00:46:39.044Z,7.42
2018-07-26T00:49:08.103Z,8.53
2018-07-26T00:51:37.251Z,8.83
2018-07-26T00:54:06.458Z,6.15
2018-07-26T00:56:35.556Z,9.13
2018-07-26T00:59:25.143Z,12.18
2018-07-26T01:01:57.482Z,8.35
2018-07-26T01:04:26.557Z,7.08
2018-07-26T01:06:56.095Z,6.85
2018-07-26T01:09:25.702Z,11.75
2018-07-26T01:11:54.913Z,9.15
2018-07-26T01:14:23.991Z,8.05
2018-07-26T01:16:53.283Z,9.30
2018-07-26T01:19:22.346Z,7.72
2018-07-26T01:21:51.413Z,10.08
2018-07-26T01:24:20.769Z,7.58
2018-07-26T01:26:49.876Z,11.90
2018-07-26T01:29:20.705Z,7.58
2018-07-26T01:31:54.135Z,11.63
2018-07-26T01:34:24.627Z,7.87
2018-07-26T01:36:57.884Z,7.80
2018-07-26T01:39:27.092Z,8.90
2018-07-26T01:41:56.901Z,7.47
2018-07-26T01:44:26.591Z,8.55
2018-07-26T01:46:56.149Z,8.03
2018-07-26T01:49:41.182Z,7.40
2018-07-26T01:52:13.572Z,7.62
2018-07-26T01:54:42.634Z,7.40
2018-07-26T01:57:11.707Z,7.73
2018-07-26T01:59:42.019Z,10.37
2018-07-26T02:02:11.338Z,7.37
2018-07-26T02:04:40.435Z,7.30
2018-07-26T02:07:09.910Z,9.17
2018-07-26T02:09:38.988Z,8.00
2018-07-26T02:12:08.399Z,10.70
2018-07-26T02:14:37.693Z,13.37
2018-07-26T02:17:11.901Z,9.35
2018-07-26T02:19:41.432Z,9.88
2018-07-26T02:22:10.510Z,10.23
2018-07-26T02:24:39.583Z,7.90
2018-07-26T02:27:08.921Z,7.43
2018-07-26T02:29:38.132Z,8.20
2018-07-26T02:32:08.847Z,9.63
2018-07-26T02:34:38.090Z,9.17
2018-07-26T02:37:07.248Z,9.53
2018-07-26T02:39:36.639Z,9.63
2018-07-26T02:42:05.749Z,8.03
2018-07-26T02:44:35.385Z,9.37
2018-07-26T02:47:07.835Z,8.97
2018-07-26T02:49:36.936Z,7.90
2018-07-26T02:52:07.530Z,10.10
2018-07-26T02:54:36.623Z,9.20
2018-07-26T02:57:07.669Z,11.90
2018-07-26T02:59:43.044Z,11.23
2018-07-26T03:02:12.637Z,8.27
2018-07-26T03:04:41.701Z,9.87
2018-07-26T03:07:10.831Z,8.10
2018-07-26T03:09:40.331Z,9.73
2018-07-26T03:12:09.550Z,13.90
2018-07-26T03:14:42.880Z,8.60
2018-07-26T03:17:12.960Z,10.37
2018-07-26T03:19:42.959Z,10.10
2018-07-26T03:22:12.052Z,10.20
2018-07-26T03:24:41.170Z,12.03
2018-07-26T03:27:10.356Z,9.33
2018-07-26T03:29:41.600Z,12.50
2018-07-26T03:32:10.714Z,9.73
2018-07-26T03:34:39.804Z,15.83
2018-07-26T03:37:09.172Z,10.53
2018-07-26T03:39:38.261Z,11.10
2018-07-26T03:42:07.919Z,9.90
2018-07-26T03:44:37.541Z,9.17
2018-07-26T03:47:09.334Z,10.97
2018-07-26T03:49:38.762Z,10.50
2018-07-26T03:52:07.846Z,11.00
2018-07-26T03:54:36.954Z,10.57
2018-07-26T03:57:06.555Z,11.40
2018-07-26T03:59:36.683Z,12.07
2018-07-26T04:02:09.255Z,10.53
2018-07-26T04:04:38.304Z,14.77
2018-07-26T04:07:07.637Z,12.20
2018-07-26T04:09:36.848Z,11.43
2018-07-26T04:12:10.250Z,11.90
2018-07-26T04:14:39.350Z,12.93
2018-07-26T04:17:08.482Z,10.20
2018-07-26T04:19:38.021Z,11.27
2018-07-26T04:22:08.356Z,11.17
2018-07-26T04:24:37.674Z,13.50
2018-07-26T04:27:07.274Z,11.27
2018-07-26T04:29:36.590Z,10.93
2018-07-26T04:32:09.649Z,14.07
2018-07-26T04:34:38.953Z,12.27
2018-07-26T04:37:08.033Z,12.73
2018-07-26T04:39:37.343Z,11.10
2018-07-26T04:42:07.941Z,12.63
2018-07-26T04:44:37.270Z,12.13
2018-07-26T04:47:09.006Z,10.20
2018-07-26T04:49:38.624Z,9.37
2018-07-26T04:52:07.994Z,9.40
2018-07-26T04:54:37.080Z,13.53
2018-07-26T04:57:08.709Z,10.53
2018-07-26T04:59:37.778Z,10.23
2018-07-26T05:02:07.256Z,16.07
2018-07-26T05:04:36.606Z,11.00
2018-07-26T05:07:08.516Z,16.20
2018-07-26T05:09:38.105Z,9.50
2018-07-26T05:12:07.175Z,10.43
2018-07-26T05:14:36.567Z,12.90
2018-07-26T05:17:05.964Z,12.23
2018-07-26T05:19:35.817Z,11.13
2018-07-26T05:22:08.981Z,10.83
2018-07-26T05:24:38.043Z,14.77
2018-07-26T05:27:08.210Z,13.47
2018-07-26T05:29:37.331Z,11.73
2018-07-26T05:32:07.601Z,11.03
2018-07-26T05:34:37.292Z,13.13
2018-07-26T05:37:07.664Z,12.90
2018-07-26T05:39:40.699Z,15.60
2018-07-26T05:45:11.851Z,11.70
2018-07-26T05:47:40.910Z,13.57
2018-07-26T05:50:10.559Z,14.80
2018-07-26T05:52:40.143Z,14.17
2018-07-26T05:55:10.338Z,11.13
2018-07-26T05:57:39.665Z,9.77
2018-07-26T06:00:13.865Z,11.90
2018-07-26T06:02:43.881Z,11.03
2018-07-26T06:05:13.338Z,11.03
2018-07-26T06:07:42.411Z,14.50
2018-07-26T06:10:11.546Z,11.60
2018-07-26T06:12:40.953Z,15.20
2018-07-26T06:15:11.951Z,16.10
2018-07-26T06:17:41.744Z,12.63
2018-07-26T06:20:12.283Z,16.70
2018-07-26T06:22:41.946Z,15.00
2018-07-26T06:25:11.355Z,14.50
2018-07-26T06:27:40.630Z,18.37
2018-07-26T06:30:12.197Z,14.18
2018-07-26T06:32:42.015Z,15.35
2018-07-26T06:35:11.430Z,16.43
2018-07-26T06:37:40.741Z,17.50
2018-07-26T06:40:10.811Z,13.08
2018-07-26T06:42:39.916Z,21.57
2018-07-26T06:45:10.843Z,12.50
2018-07-26T06:47:40.221Z,15.28
2018-07-26T06:50:10.802Z,14.70
2018-07-26T06:52:40.138Z,11.05
2018-07-26T06:55:09.488Z,16.60
2018-07-26T06:57:38.988Z,21.95
2018-07-26T07:00:09.610Z,12.73
2018-07-26T07:02:39.482Z,14.30
2018-07-26T07:05:09.088Z,14.90
2018-07-26T07:07:38.756Z,15.95
2018-07-26T07:10:07.915Z,9.55
2018-07-26T07:12:37.024Z,11.65
2018-07-26T07:15:06.986Z,13.70
2018-07-26T07:17:36.450Z,10.18
2018-07-26T07:20:06.645Z,12.45
2018-07-26T07:22:35.777Z,12.75
2018-07-26T07:25:05.294Z,12.28
2018-07-26T07:27:34.369Z,9.53
2018-07-26T07:30:03.544Z,10.32
2018-07-26T07:32:32.780Z,13.25
2018-07-26T07:35:01.868Z,7.50
2018-07-26T07:37:31.061Z,11.43
2018-07-26T07:40:01.032Z,11.33
2018-07-26T07:42:30.772Z,10.08
2018-07-26T07:45:01.147Z,10.08
2018-07-26T07:47:30.374Z,12.45
2018-07-26T07:50:00.265Z,11.12
2018-07-26T07:52:30.844Z,7.62
2018-07-26T07:55:00.373Z,8.68
2018-07-26T07:57:29.486Z,10.05
2018-07-26T07:59:58.596Z,9.40
2018-07-26T08:02:28.693Z,10.72
2018-07-26T08:04:57.769Z,9.65
2018-07-26T08:07:26.820Z,13.95
2018-07-26T08:09:56.278Z,9.05
2018-07-26T08:12:25.351Z,10.40
2018-07-26T08:14:55.002Z,6.83
2018-07-26T08:17:24.253Z,9.05
2018-07-26T08:19:53.326Z,9.90
2018-07-26T08:22:22.583Z,9.38
2018-07-26T08:24:51.641Z,9.18
2018-07-26T08:27:22.910Z,10.30
2018-07-26T08:29:52.353Z,9.45
2018-07-26T08:32:21.401Z,6.78
2018-07-26T08:34:50.812Z,8.08
2018-07-26T08:37:19.958Z,5.75
2018-07-26T08:39:49.035Z,10.75
2018-07-26T08:42:18.245Z,4.83
2018-07-26T08:44:47.384Z,6.25
2018-07-26T08:47:16.606Z,9.65
2018-07-26T08:49:45.963Z,8.10
2018-07-26T08:52:15.986Z,9.60
2018-07-26T08:54:46.242Z,7.20
2018-07-26T08:57:15.333Z,5.97
2018-07-26T08:59:44.438Z,7.40
2018-07-26T09:02:14.650Z,10.03
2018-07-26T09:04:43.737Z,10.90
2018-07-26T09:07:12.800Z,6.22
2018-07-26T09:09:42.013Z,9.53
2018-07-26T09:12:11.096Z,6.87
2018-07-26T09:14:40.824Z,6.92
2018-07-26T09:17:10.581Z,6.25
2018-07-26T09:19:40.360Z,5.22
2018-07-26T09:22:09.418Z,6.30
2018-07-26T09:24:41.623Z,4.33
2018-07-26T09:27:15.177Z,7.62
2018-07-26T09:29:44.390Z,5.17
2018-07-26T09:32:13.618Z,5.85
2018-07-26T09:34:43.227Z,6.87
2018-07-26T09:37:12.666Z,6.78
2018-07-26T09:39:42.114Z,6.25
2018-07-26T09:42:12.107Z,5.90
2018-07-26T09:44:41.155Z,8.23
2018-07-26T09:47:10.250Z,4.75
2018-07-26T09:49:39.575Z,9.43
2018-07-26T09:52:08.692Z,4.10
2018-07-26T09:54:37.764Z,3.12
2018-07-26T09:57:06.981Z,6.75
2018-07-26T09:59:36.022Z,5.53
2018-07-26T10:02:05.112Z,7.53
2018-07-26T10:04:34.326Z,4.92
2018-07-26T10:07:03.430Z,3.52
2018-07-26T10:09:32.721Z,5.85
2018-07-26T10:12:03.662Z,8.58
2018-07-26T10:14:32.859Z,5.22
2018-07-26T10:17:01.929Z,5.30
2018-07-26T10:19:31.008Z,8.30
2018-07-26T10:22:00.606Z,7.75
2018-07-26T10:24:30.275Z,8.40
2018-07-26T10:26:59.379Z,6.58
2018-07-26T10:29:28.520Z,3.72
2018-07-26T10:31:57.965Z,3.58
2018-07-26T10:34:27.035Z,8.13
2018-07-26T10:36:56.267Z,7.03
2018-07-26T10:39:26.056Z,4.75
2018-07-26T10:41:55.463Z,5.47
2018-07-26T10:44:24.588Z,3.25
2018-07-26T10:46:53.643Z,6.33
2018-07-26T10:49:22.990Z,7.15
2018-07-26T10:51:52.158Z,5.87
2018-07-26T10:54:21.226Z,6.65
2018-07-26T10:56:50.640Z,7.92
2018-07-26T10:59:19.705Z,2.85
2018-07-26T11:01:48.807Z,4.10
2018-07-26T11:04:18.236Z,5.03
2018-07-26T11:06:47.296Z,4.17
2018-07-26T11:09:16.642Z,5.90
2018-07-26T11:11:45.725Z,6.58
2018-07-26T11:14:14.800Z,7.90
2018-07-26T11:16:44.025Z,3.87
2018-07-26T11:19:13.220Z,5.78
2018-07-26T11:21:42.366Z,6.87
2018-07-26T11:24:11.468Z,3.75
2018-07-26T11:26:40.814Z,5.80
2018-07-26T11:29:16.266Z,4.22
2018-07-26T11:31:45.455Z,6.20
2018-07-26T11:34:14.651Z,3.22
2018-07-26T11:36:43.712Z,7.22
2018-07-26T11:39:12.863Z,5.17
2018-07-26T11:41:43.100Z,5.95
2018-07-26T11:44:12.170Z,3.52
2018-07-26T11:46:41.261Z,6.17
2018-07-26T11:49:10.139Z,4.90
2018-07-26T11:51:39.217Z,3.42
2018-07-26T11:54:08.543Z,3.45
2018-07-26T11:56:37.594Z,4.87
2018-07-26T11:59:06.688Z,4.47
2018-07-26T12:01:36.709Z,6.60
2018-07-26T12:04:05.834Z,2.83
2018-07-26T12:06:34.900Z,4.40
2018-07-26T12:09:06.496Z,5.37
2018-07-26T12:11:35.576Z,5.20
2018-07-26T12:14:04.656Z,6.72
2018-07-26T12:16:34.094Z,4.05
2018-07-26T12:19:04.200Z,5.40
2018-07-26T12:21:33.284Z,3.67
2018-07-26T12:24:02.612Z,4.10
2018-07-26T12:26:31.698Z,4.50
2018-07-26T12:29:00.750Z,2.47
2018-07-26T12:31:30.052Z,4.47
2018-07-26T12:33:59.112Z,9.05
2018-07-26T12:36:28.465Z,3.17
2018-07-26T12:38:57.519Z,4.00
2018-07-26T12:41:26.615Z,5.05
2018-07-26T12:43:56.149Z,6.83
2018-07-26T12:46:25.221Z,4.05
2018-07-26T12:48:54.392Z,4.95
2018-07-26T12:51:23.679Z,4.72
2018-07-26T12:53:53.205Z,6.05
2018-07-26T12:56:22.261Z,6.83
2018-07-26T12:58:51.562Z,7.62
2018-07-26T13:01:20.900Z,5.20
2018-07-26T13:03:49.990Z,3.72
2018-07-26T13:06:19.057Z,3.95
2018-07-26T13:08:49.197Z,4.60
2018-07-26T13:11:18.389Z,4.00
2018-07-26T13:13:47.632Z,9.15
2018-07-26T13:16:17.566Z,5.12
2018-07-26T13:18:46.653Z,2.90
2018-07-26T13:21:15.715Z,4.85
2018-07-26T13:23:45.195Z,6.62
2018-07-26T13:26:14.266Z,3.62
2018-07-26T13:28:43.390Z,8.00
2018-07-26T13:31:12.663Z,3.45
2018-07-26T13:33:42.211Z,5.35
2018-07-26T13:36:11.407Z,3.67
2018-07-26T13:38:40.661Z,6.00
2018-07-26T13:41:09.757Z,4.15
2018-07-26T13:43:38.848Z,4.28
2018-07-26T13:46:08.386Z,7.00
2018-07-26T13:48:37.498Z,5.70
2018-07-26T13:51:06.714Z,3.47
2018-07-26T13:53:36.081Z,4.67
2018-07-26T13:56:05.192Z,6.05
2018-07-26T13:58:34.257Z,3.70
2018-07-26T14:01:03.541Z,4.55
2018-07-26T14:03:32.613Z,7.65
2018-07-26T14:06:01.851Z,3.67
2018-07-26T14:08:30.932Z,4.87
2018-07-26T14:11:00.070Z,7.20
2018-07-26T14:13:29.326Z,4.65
2018-07-26T14:15:58.546Z,5.25
2018-07-26T14:18:27.545Z,5.33
2018-07-26T14:20:56.742Z,3.30
2018-07-26T14:23:31.029Z,7.83
2018-07-26T14:26:00.134Z,5.67
2018-07-26T14:28:29.863Z,6.22
2018-07-26T14:30:59.274Z,7.50
2018-07-26T14:33:28.345Z,6.15
2018-07-26T14:35:57.424Z,6.05
2018-07-26T14:38:26.527Z,6.40
2018-07-26T14:40:55.634Z,5.50
2018-07-26T14:43:24.746Z,3.27
2018-07-26T14:45:54.373Z,7.03
2018-07-26T14:48:23.447Z,4.58
2018-07-26T14:50:52.571Z,4.83
2018-07-26T14:53:21.829Z,4.80
2018-07-26T14:55:50.894Z,6.28
2018-07-26T14:58:19.986Z,4.58
2018-07-26T15:00:49.683Z,4.37
2018-07-26T15:03:18.736Z,3.70
2018-07-26T15:05:47.886Z,5.15
2018-07-26T15:08:17.347Z,6.45
2018-07-26T15:10:46.449Z,6.12
2018-07-26T15:13:15.570Z,7.40
2018-07-26T15:15:44.856Z,9.15
2018-07-26T15:18:14.024Z,7.22
2018-07-26T15:20:43.416Z,4.75
2018-07-26T15:23:12.484Z,3.67
2018-07-26T15:25:41.606Z,3.77
2018-07-26T15:28:11.110Z,5.62
2018-07-26T15:30:40.421Z,5.90
2018-07-26T15:33:09.475Z,6.42
2018-07-26T15:35:38.801Z,4.12
2018-07-26T15:38:07.908Z,3.20
2018-07-26T15:40:36.980Z,9.63
2018-07-26T15:43:06.924Z,19.07
2018-07-26T15:45:36.066Z,12.37
2018-07-26T15:48:06.371Z,5.55
2018-07-26T15:50:36.173Z,7.03
2018-07-26T15:53:05.270Z,5.12
2018-07-26T15:55:34.730Z,3.62
2018-07-26T15:58:03.813Z,3.00
2018-07-26T16:00:33.862Z,5.65
2018-07-26T16:03:02.947Z,2.95
2018-07-26T16:05:32.014Z,5.90
2018-07-26T16:08:01.342Z,2.45
2018-07-26T16:10:30.582Z,3.60
2018-07-26T16:12:59.634Z,5.08
2018-07-26T16:15:30.329Z,3.60
2018-07-26T16:17:59.531Z,3.83
2018-07-26T16:20:28.505Z,2.37
2018-07-26T16:22:57.913Z,4.12
2018-07-26T16:25:27.009Z,2.80
2018-07-26T16:27:56.526Z,4.12
2018-07-26T16:30:25.764Z,5.40
2018-07-26T16:32:55.313Z,2.90
2018-07-26T16:35:24.398Z,4.58
2018-07-26T16:37:53.471Z,4.60
2018-07-26T16:40:23.387Z,5.60
2018-07-26T16:42:52.499Z,3.42
2018-07-26T16:45:21.632Z,3.70
2018-07-26T16:47:50.951Z,4.78
2018-07-26T16:50:20.025Z,3.52
2018-07-26T16:52:49.138Z,8.20
2018-07-26T16:55:18.465Z,7.83
2018-07-26T16:57:47.561Z,5.75
2018-07-26T17:00:17.597Z,5.53
2018-07-26T17:02:48.008Z,5.60
2018-07-26T17:05:17.936Z,5.10
2018-07-26T17:07:47.512Z,8.53
2018-07-26T17:10:16.761Z,5.62
2018-07-26T17:12:45.853Z,5.87
2018-07-26T17:15:15.190Z,7.78
2018-07-26T17:17:44.321Z,7.55
2018-07-26T17:20:13.454Z,7.45
2018-07-26T17:22:43.521Z,6.35
2018-07-26T17:25:12.578Z,7.45
2018-07-26T17:27:41.635Z,5.60
2018-07-26T17:30:10.956Z,5.15
2018-07-26T17:32:40.063Z,6.05
2018-07-26T17:35:09.168Z,5.20
2018-07-26T17:37:38.335Z,6.22
2018-07-26T17:40:07.483Z,6.80
2018-07-26T17:42:36.561Z,6.33
2018-07-26T17:45:08.349Z,8.38
2018-07-26T17:47:38.637Z,8.25
2018-07-26T17:50:09.831Z,32.00
2018-07-26T17:52:39.135Z,27.15
2018-07-26T17:55:08.432Z,30.97
2018-07-26T17:57:37.907Z,25.25
2018-07-26T18:00:09.842Z,29.25
2018-07-26T18:02:39.226Z,44.85
2018-07-26T18:05:08.612Z,50.00
2018-07-26T18:07:37.694Z,64.22
2018-07-26T18:10:08.096Z,67.97
2018-07-26T18:12:37.862Z,38.88
2018-07-26T18:15:08.444Z,50.25
2018-07-26T18:17:38.823Z,50.10
2018-07-26T18:20:08.495Z,43.70
2018-07-26T18:22:37.545Z,41.65
2018-07-26T18:25:06.768Z,37.28
2018-07-26T18:27:35.967Z,33.42
2018-07-26T18:30:06.481Z,23.12
2018-07-26T18:32:35.735Z,36.73
2018-07-26T18:35:06.096Z,31.55
2018-07-26T18:37:37.383Z,29.37
2018-07-26T18:40:07.981Z,25.37
2018-07-26T18:42:37.131Z,29.12
2018-07-26T18:45:07.959Z,37.85
2018-07-26T18:47:37.868Z,22.50
2018-07-26T18:50:08.022Z,25.75
2018-07-26T18:52:37.521Z,22.30
2018-07-26T18:55:08.179Z,13.43
2018-07-26T18:57:37.928Z,16.65
2018-07-26T19:00:09.107Z,15.08
2018-07-26T19:02:38.331Z,21.37
2018-07-26T19:05:07.265Z,10.82
2018-07-26T19:07:36.833Z,13.22
2018-07-26T19:10:08.299Z,8.08
2018-07-26T19:12:38.130Z,11.83
2018-07-26T19:15:10.708Z,14.25
2018-07-26T19:17:39.869Z,9.43
2018-07-26T19:20:10.780Z,8.60
2018-07-26T19:22:39.949Z,11.18
2018-07-26T19:25:10.022Z,9.65
2018-07-26T19:27:39.212Z,10.80
2018-07-26T19:30:11.230Z,10.95
2018-07-26T19:32:40.405Z,9.10
2018-07-26T19:35:10.781Z,8.85
2018-07-26T19:37:39.888Z,13.62
2018-07-26T19:40:10.387Z,8.88
2018-07-26T19:42:40.330Z,7.22
2018-07-26T19:45:10.536Z,11.40
2018-07-26T19:47:40.475Z,10.70
2018-07-26T19:50:09.743Z,11.12
2018-07-26T19:52:38.828Z,14.10
2018-07-26T19:55:10.249Z,13.72
2018-07-26T19:57:39.356Z,11.73
2018-07-26T20:00:09.188Z,17.30
2018-07-26T20:02:39.480Z,15.35
2018-07-26T20:05:09.735Z,11.45
2018-07-26T20:07:39.207Z,11.15
2018-07-26T20:10:10.613Z,14.63
2018-07-26T20:12:39.976Z,12.25
2018-07-26T20:15:09.171Z,13.30
2018-07-26T20:17:38.278Z,12.20
2018-07-26T20:20:10.880Z,14.70
2018-07-26T20:22:40.072Z,16.97
2018-07-26T20:25:09.315Z,15.90
2018-07-26T20:27:38.750Z,10.65
2018-07-26T20:30:09.088Z,8.48
2018-07-26T20:32:38.530Z,12.30
2018-07-26T20:35:08.362Z,9.23
2018-07-26T20:37:37.539Z,11.85
2018-07-26T20:40:08.812Z,7.30
2018-07-26T20:42:37.923Z,11.57
2018-07-26T20:45:09.168Z,9.18
2018-07-26T20:47:38.568Z,11.68
2018-07-26T20:50:08.533Z,13.90
2018-07-26T20:52:38.683Z,9.55
2018-07-26T20:55:07.798Z,10.48
2018-07-26T20:57:36.883Z,9.88
2018-07-26T21:00:09.473Z,10.25
2018-07-26T21:02:38.557Z,7.37
2018-07-26T21:05:07.644Z,7.25
2018-07-26T21:07:37.372Z,7.70
2018-07-26T21:10:07.498Z,7.20
2018-07-26T21:12:36.708Z,6.17
2018-07-26T21:15:07.265Z,6.22
2018-07-26T21:17:36.744Z,9.70
2018-07-26T21:20:06.156Z,8.93
2018-07-26T21:22:35.312Z,8.00
2018-07-26T21:25:04.832Z,6.33
2018-07-26T21:27:33.917Z,6.87
2018-07-26T21:30:03.260Z,6.60
2018-07-26T21:32:32.371Z,7.90
2018-07-26T21:35:01.459Z,7.22
2018-07-26T21:37:30.893Z,7.40
2018-07-26T21:40:00.168Z,5.42
2018-07-26T21:42:29.335Z,5.17
2018-07-26T21:44:58.481Z,6.12
2018-07-26T21:47:27.744Z,6.08
2018-07-26T21:49:56.793Z,4.80
2018-07-26T21:52:26.023Z,7.15
2018-07-26T21:54:55.582Z,4.10
2018-07-26T21:57:24.675Z,5.40
2018-07-26T21:59:54.395Z,6.42
2018-07-26T22:02:23.525Z,4.20
2018-07-26T22:04:53.011Z,5.80
2018-07-26T22:07:22.937Z,6.72
2018-07-26T22:09:52.122Z,7.95
2018-07-26T22:12:21.421Z,5.37
2018-07-26T22:14:50.466Z,4.80
2018-07-26T22:17:19.590Z,5.78
2018-07-26T22:19:48.746Z,4.45
2018-07-26T22:22:18.215Z,6.25
2018-07-26T22:24:47.286Z,7.65
2018-07-26T22:27:16.344Z,3.75
2018-07-26T22:29:45.889Z,6.75
2018-07-26T22:32:14.963Z,3.72
2018-07-26T22:34:44.084Z,4.97
2018-07-26T22:37:13.394Z,5.83
2018-07-26T22:39:43.145Z,5.17
2018-07-26T22:42:12.214Z,4.03
2018-07-26T22:44:41.337Z,5.25
2018-07-26T22:47:10.610Z,5.70
2018-07-26T22:49:39.670Z,5.00
2018-07-26T22:52:08.900Z,5.08
2018-07-26T22:54:37.960Z,4.10
2018-07-26T22:57:07.190Z,4.03
2018-07-26T22:59:36.258Z,4.55
2018-07-26T23:02:05.319Z,5.08
2018-07-26T23:04:34.576Z,5.12
2018-07-26T23:07:03.676Z,3.98
2018-07-26T23:09:32.742Z,5.45
2018-07-26T23:12:02.172Z,5.10
2018-07-26T23:14:31.243Z,4.12
2018-07-26T23:17:00.321Z,4.45
2018-07-26T23:19:29.662Z,4.30
2018-07-26T23:21:59.204Z,7.30
2018-07-26T23:24:28.304Z,3.77
2018-07-26T23:26:57.572Z,4.28
2018-07-26T23:29:26.657Z,4.80
2018-07-26T23:31:56.007Z,4.17
2018-07-26T23:34:25.345Z,5.90
2018-07-26T23:36:54.553Z,5.95
2018-07-26T23:39:23.626Z,3.80
2018-07-26T23:41:52.994Z,7.22
2018-07-26T23:44:22.125Z,4.75
2018-07-26T23:46:52.392Z,4.50
2018-07-26T23:49:21.471Z,5.35
2018-07-26T23:51:50.649Z,5.85
2018-07-26T23:54:19.929Z,3.92
2018-07-26T23:56:49.170Z,3.40
2018-07-26T23:59:18.228Z,6.45
